Disclaimer

Please do not use the information listed here in-flight or in-navigation, as they are not provided to us by the airports but are provided by volunteers, so they might be outdated.

Search


Regions


Airport information page

Radio informations:
TUCUMAN TWR/APP - 119.5 MHz

Airport informations:
Latitude: 26° 50' 27.10" S
Longitude: 065° 06' 17.80" W
Elevation: 1495 feet - 456 meters
Operating hours: Remarks
Operating agency: Civil government, landing fees and diplomatic clearance may be required
Timezone: UTC-3
Fuel: Jet A1, without icing nhibitor.

100/130 MIL Spec, low lead, aviation gasoline (BLUE)

Runway information:
01/19 - 9515 x 147 feet< - >2900 x 45 meters

Recent METARs:
SANT 190200Z 36006KT 9999 SCT040 16/12 Q1019
SANT 190200Z 36006KT 9999 SCT040 16/12 Q1019
SANT 190300Z 34007KT 9999 FEW040 16/13 Q1019

Airport on the map: